sensor_id;sensor_type;location;lat;lon;timestamp;P1;durP1;ratioP1;P2;durP2;ratioP2
14021;SDS011;7086;48.116;11.580;2023-07-09T00:00:36;5.00;;;3.25;;
14021;SDS011;7086;48.116;11.580;2023-07-09T00:03:03;3.92;;;3.53;;
14021;SDS011;7086;48.116;11.580;2023-07-09T00:05:29;4.43;;;3.17;;
14021;SDS011;7086;48.116;11.580;2023-07-09T00:07:57;4.60;;;3.05;;
14021;SDS011;7086;48.116;11.580;2023-07-09T00:10:25;5.78;;;4.35;;
14021;SDS011;7086;48.116;11.580;2023-07-09T00:12:52;4.40;;;4.00;;
14021;SDS011;7086;48.116;11.580;2023-07-09T00:15:19;4.40;;;2.92;;
14021;SDS011;7086;48.116;11.580;2023-07-09T00:17:46;4.15;;;3.40;;
14021;SDS011;7086;48.116;11.580;2023-07-09T00:20:14;3.65;;;3.20;;
14021;SDS011;7086;48.116;11.580;2023-07-09T00:22:43;3.45;;;3.03;;
14021;SDS011;7086;48.116;11.580;2023-07-09T00:25:18;3.58;;;3.05;;
14021;SDS011;7086;48.116;11.580;2023-07-09T00:27:45;4.07;;;3.15;;
14021;SDS011;7086;48.116;11.580;2023-07-09T00:30:16;3.47;;;3.17;;
14021;SDS011;7086;48.116;11.580;2023-07-09T00:32:44;3.47;;;3.17;;
14021;SDS011;7086;48.116;11.580;2023-07-09T00:35:11;3.85;;;3.47;;
14021;SDS011;7086;48.116;11.580;2023-07-09T00:37:40;4.13;;;3.08;;
14021;SDS011;7086;48.116;11.580;2023-07-09T00:40:10;2.83;;;2.63;;
14021;SDS011;7086;48.116;11.580;2023-07-09T00:42:44;5.10;;;3.22;;
14021;SDS011;7086;48.116;11.580;2023-07-09T00:45:19;3.63;;;3.30;;
14021;SDS011;7086;48.116;11.580;2023-07-09T00:47:48;3.10;;;2.90;;
14021;SDS011;7086;48.116;11.580;2023-07-09T00:50:21;5.03;;;2.83;;
14021;SDS011;7086;48.116;11.580;2023-07-09T00:53:01;4.93;;;3.60;;
14021;SDS011;7086;48.116;11.580;2023-07-09T00:55:33;9.32;;;3.58;;
14021;SDS011;7086;48.116;11.580;2023-07-09T00:58:07;3.28;;;2.97;;
14021;SDS011;7086;48.116;11.580;2023-07-09T01:00:41;6.82;;;3.83;;
14021;SDS011;7086;48.116;11.580;2023-07-09T01:03:15;4.95;;;3.50;;
14021;SDS011;7086;48.116;11.580;2023-07-09T01:05:47;3.35;;;3.10;;
14021;SDS011;7086;48.116;11.580;2023-07-09T01:08:17;2.97;;;2.78;;
14021;SDS011;7086;48.116;11.580;2023-07-09T01:10:44;4.55;;;3.67;;
14021;SDS011;7086;48.116;11.580;2023-07-09T01:13:13;4.28;;;3.53;;
14021;SDS011;7086;48.116;11.580;2023-07-09T01:15:40;5.57;;;4.50;;
14021;SDS011;7086;48.116;11.580;2023-07-09T01:18:07;4.90;;;3.60;;
14021;SDS011;7086;48.116;11.580;2023-07-09T01:20:35;5.00;;;3.05;;
14021;SDS011;7086;48.116;11.580;2023-07-09T01:23:06;4.45;;;3.80;;
14021;SDS011;7086;48.116;11.580;2023-07-09T01:25:33;3.67;;;3.35;;
14021;SDS011;7086;48.116;11.580;2023-07-09T01:28:02;5.20;;;3.40;;
14021;SDS011;7086;48.116;11.580;2023-07-09T01:30:30;4.57;;;3.17;;
14021;SDS011;7086;48.116;11.580;2023-07-09T01:33:00;3.72;;;3.13;;
14021;SDS011;7086;48.116;11.580;2023-07-09T01:35:28;5.45;;;3.40;;
14021;SDS011;7086;48.116;11.580;2023-07-09T01:37:56;4.20;;;3.45;;
14021;SDS011;7086;48.116;11.580;2023-07-09T01:40:25;4.10;;;3.50;;
14021;SDS011;7086;48.116;11.580;2023-07-09T01:42:54;6.45;;;3.05;;
14021;SDS011;7086;48.116;11.580;2023-07-09T01:45:23;4.20;;;3.78;;
14021;SDS011;7086;48.116;11.580;2023-07-09T01:47:50;4.28;;;3.05;;
14021;SDS011;7086;48.116;11.580;2023-07-09T01:50:18;3.03;;;2.83;;
14021;SDS011;7086;48.116;11.580;2023-07-09T01:52:45;4.40;;;3.28;;
14021;SDS011;7086;48.116;11.580;2023-07-09T01:55:15;3.55;;;2.95;;
14021;SDS011;7086;48.116;11.580;2023-07-09T01:57:44;6.03;;;3.20;;
14021;SDS011;7086;48.116;11.580;2023-07-09T02:00:11;4.95;;;2.83;;
14021;SDS011;7086;48.116;11.580;2023-07-09T02:02:40;4.68;;;3.10;;
14021;SDS011;7086;48.116;11.580;2023-07-09T02:05:09;4.75;;;3.30;;
14021;SDS011;7086;48.116;11.580;2023-07-09T02:07:38;3.90;;;3.15;;
14021;SDS011;7086;48.116;11.580;2023-07-09T02:10:05;3.63;;;3.33;;
14021;SDS011;7086;48.116;11.580;2023-07-09T02:12:32;5.75;;;3.55;;
14021;SDS011;7086;48.116;11.580;2023-07-09T02:15:01;3.38;;;3.08;;
14021;SDS011;7086;48.116;11.580;2023-07-09T02:17:28;4.03;;;2.85;;
14021;SDS011;7086;48.116;11.580;2023-07-09T02:19:54;3.83;;;3.08;;
14021;SDS011;7086;48.116;11.580;2023-07-09T02:22:24;3.58;;;3.28;;
14021;SDS011;7086;48.116;11.580;2023-07-09T02:24:51;5.82;;;3.47;;
14021;SDS011;7086;48.116;11.580;2023-07-09T02:27:19;4.72;;;3.60;;
14021;SDS011;7086;48.116;11.580;2023-07-09T02:29:46;3.10;;;2.78;;
14021;SDS011;7086;48.116;11.580;2023-07-09T02:32:16;4.75;;;2.90;;
14021;SDS011;7086;48.116;11.580;2023-07-09T02:34:45;6.25;;;2.90;;
14021;SDS011;7086;48.116;11.580;2023-07-09T02:37:14;4.65;;;3.40;;
14021;SDS011;7086;48.116;11.580;2023-07-09T02:39:43;3.35;;;2.95;;
14021;SDS011;7086;48.116;11.580;2023-07-09T02:42:10;3.30;;;3.00;;
14021;SDS011;7086;48.116;11.580;2023-07-09T02:44:40;3.97;;;3.28;;
14021;SDS011;7086;48.116;11.580;2023-07-09T02:47:07;4.80;;;2.72;;
14021;SDS011;7086;48.116;11.580;2023-07-09T02:49:36;3.78;;;2.90;;
14021;SDS011;7086;48.116;11.580;2023-07-09T02:52:04;3.90;;;3.08;;
14021;SDS011;7086;48.116;11.580;2023-07-09T02:54:31;3.05;;;2.72;;
14021;SDS011;7086;48.116;11.580;2023-07-09T02:56:58;5.45;;;3.20;;
14021;SDS011;7086;48.116;11.580;2023-07-09T02:59:25;3.17;;;2.88;;
14021;SDS011;7086;48.116;11.580;2023-07-09T03:01:54;5.43;;;3.53;;
14021;SDS011;7086;48.116;11.580;2023-07-09T03:04:21;4.28;;;3.42;;
14021;SDS011;7086;48.116;11.580;2023-07-09T03:06:49;4.05;;;2.90;;
14021;SDS011;7086;48.116;11.580;2023-07-09T03:09:16;2.97;;;2.78;;
14021;SDS011;7086;48.116;11.580;2023-07-09T03:11:43;3.33;;;3.03;;
14021;SDS011;7086;48.116;11.580;2023-07-09T03:14:10;3.20;;;2.60;;
14021;SDS011;7086;48.116;11.580;2023-07-09T03:16:37;4.75;;;3.13;;
14021;SDS011;7086;48.116;11.580;2023-07-09T03:19:04;6.65;;;3.95;;
14021;SDS011;7086;48.116;11.580;2023-07-09T03:21:31;5.28;;;3.58;;
14021;SDS011;7086;48.116;11.580;2023-07-09T03:23:59;3.20;;;2.90;;
14021;SDS011;7086;48.116;11.580;2023-07-09T03:26:26;3.75;;;3.30;;
14021;SDS011;7086;48.116;11.580;2023-07-09T03:28:53;4.57;;;2.83;;
14021;SDS011;7086;48.116;11.580;2023-07-09T03:31:20;3.40;;;3.10;;
14021;SDS011;7086;48.116;11.580;2023-07-09T03:33:48;5.15;;;3.03;;
14021;SDS011;7086;48.116;11.580;2023-07-09T03:36:16;3.38;;;3.05;;
14021;SDS011;7086;48.116;11.580;2023-07-09T03:38:43;4.10;;;3.15;;
14021;SDS011;7086;48.116;11.580;2023-07-09T03:41:12;6.38;;;2.95;;
14021;SDS011;7086;48.116;11.580;2023-07-09T03:43:38;3.15;;;2.88;;
14021;SDS011;7086;48.116;11.580;2023-07-09T03:46:05;3.17;;;2.58;;
14021;SDS011;7086;48.116;11.580;2023-07-09T03:48:32;3.05;;;2.58;;
14021;SDS011;7086;48.116;11.580;2023-07-09T03:50:58;3.20;;;2.97;;
14021;SDS011;7086;48.116;11.580;2023-07-09T03:53:25;2.92;;;2.72;;
14021;SDS011;7086;48.116;11.580;2023-07-09T03:55:52;5.40;;;3.33;;
14021;SDS011;7086;48.116;11.580;2023-07-09T03:58:23;3.42;;;3.13;;
14021;SDS011;7086;48.116;11.580;2023-07-09T04:00:50;4.03;;;3.03;;
14021;SDS011;7086;48.116;11.580;2023-07-09T04:03:17;3.10;;;2.90;;
14021;SDS011;7086;48.116;11.580;2023-07-09T04:05:44;3.40;;;2.60;;
14021;SDS011;7086;48.116;11.580;2023-07-09T04:08:11;4.00;;;2.90;;
14021;SDS011;7086;48.116;11.580;2023-07-09T04:10:37;3.78;;;3.03;;
14021;SDS011;7086;48.116;11.580;2023-07-09T04:13:04;5.70;;;2.60;;
14021;SDS011;7086;48.116;11.580;2023-07-09T04:15:32;5.25;;;3.30;;
14021;SDS011;7086;48.116;11.580;2023-07-09T04:17:59;2.72;;;2.53;;
14021;SDS011;7086;48.116;11.580;2023-07-09T04:20:26;4.18;;;2.78;;
14021;SDS011;7086;48.116;11.580;2023-07-09T04:22:53;4.18;;;2.72;;
14021;SDS011;7086;48.116;11.580;2023-07-09T04:25:20;3.25;;;2.95;;
14021;SDS011;7086;48.116;11.580;2023-07-09T04:27:47;3.97;;;3.17;;
14021;SDS011;7086;48.116;11.580;2023-07-09T04:30:14;3.17;;;2.88;;
14021;SDS011;7086;48.116;11.580;2023-07-09T04:32:43;3.28;;;2.85;;
14021;SDS011;7086;48.116;11.580;2023-07-09T04:35:10;4.97;;;3.33;;
14021;SDS011;7086;48.116;11.580;2023-07-09T04:37:37;3.15;;;2.85;;
14021;SDS011;7086;48.116;11.580;2023-07-09T04:40:05;4.68;;;3.45;;
14021;SDS011;7086;48.116;11.580;2023-07-09T04:42:36;3.83;;;3.08;;
14021;SDS011;7086;48.116;11.580;2023-07-09T04:45:05;3.22;;;2.95;;
14021;SDS011;7086;48.116;11.580;2023-07-09T04:47:32;4.00;;;3.17;;
14021;SDS011;7086;48.116;11.580;2023-07-09T04:50:01;2.97;;;2.78;;
14021;SDS011;7086;48.116;11.580;2023-07-09T04:52:28;4.47;;;3.15;;
14021;SDS011;7086;48.116;11.580;2023-07-09T04:54:55;5.38;;;3.00;;
14021;SDS011;7086;48.116;11.580;2023-07-09T04:57:22;3.97;;;2.60;;
14021;SDS011;7086;48.116;11.580;2023-07-09T04:59:49;3.40;;;2.88;;
14021;SDS011;7086;48.116;11.580;2023-07-09T05:02:15;2.78;;;2.53;;
14021;SDS011;7086;48.116;11.580;2023-07-09T05:04:42;3.65;;;2.38;;
14021;SDS011;7086;48.116;11.580;2023-07-09T05:07:10;3.63;;;3.10;;
14021;SDS011;7086;48.116;11.580;2023-07-09T05:09:37;4.00;;;2.90;;
14021;SDS011;7086;48.116;11.580;2023-07-09T05:12:04;3.20;;;2.97;;
14021;SDS011;7086;48.116;11.580;2023-07-09T05:14:32;3.53;;;2.88;;
14021;SDS011;7086;48.116;11.580;2023-07-09T05:16:58;2.90;;;2.53;;
14021;SDS011;7086;48.116;11.580;2023-07-09T05:19:25;3.55;;;2.42;;
14021;SDS011;7086;48.116;11.580;2023-07-09T05:21:52;4.93;;;2.85;;
14021;SDS011;7086;48.116;11.580;2023-07-09T05:24:20;3.95;;;3.53;;
14021;SDS011;7086;48.116;11.580;2023-07-09T05:26:47;3.92;;;2.90;;
14021;SDS011;7086;48.116;11.580;2023-07-09T05:29:13;3.88;;;2.83;;
14021;SDS011;7086;48.116;11.580;2023-07-09T05:31:40;3.30;;;3.00;;
14021;SDS011;7086;48.116;11.580;2023-07-09T05:34:07;3.15;;;2.90;;
14021;SDS011;7086;48.116;11.580;2023-07-09T05:36:34;3.47;;;3.00;;
14021;SDS011;7086;48.116;11.580;2023-07-09T05:39:01;4.13;;;2.95;;
14021;SDS011;7086;48.116;11.580;2023-07-09T05:41:29;3.45;;;3.20;;
14021;SDS011;7086;48.116;11.580;2023-07-09T05:43:56;3.88;;;3.30;;
14021;SDS011;7086;48.116;11.580;2023-07-09T05:46:23;3.28;;;2.90;;
14021;SDS011;7086;48.116;11.580;2023-07-09T05:48:50;3.40;;;3.10;;
14021;SDS011;7086;48.116;11.580;2023-07-09T05:51:16;2.97;;;2.78;;
14021;SDS011;7086;48.116;11.580;2023-07-09T05:53:43;3.17;;;2.47;;
14021;SDS011;7086;48.116;11.580;2023-07-09T05:56:10;3.38;;;3.08;;
14021;SDS011;7086;48.116;11.580;2023-07-09T05:58:38;3.15;;;2.85;;
14021;SDS011;7086;48.116;11.580;2023-07-09T06:01:05;3.20;;;2.90;;
14021;SDS011;7086;48.116;11.580;2023-07-09T06:03:32;3.10;;;2.90;;
14021;SDS011;7086;48.116;11.580;2023-07-09T06:06:01;2.63;;;2.47;;
14021;SDS011;7086;48.116;11.580;2023-07-09T06:08:28;2.60;;;2.40;;
14021;SDS011;7086;48.116;11.580;2023-07-09T06:10:57;3.05;;;2.85;;
14021;SDS011;7086;48.116;11.580;2023-07-09T06:13:26;2.50;;;2.30;;
14021;SDS011;7086;48.116;11.580;2023-07-09T06:15:54;2.70;;;2.50;;
14021;SDS011;7086;48.116;11.580;2023-07-09T06:18:22;2.90;;;2.70;;
14021;SDS011;7086;48.116;11.580;2023-07-09T06:20:50;2.90;;;2.70;;
14021;SDS011;7086;48.116;11.580;2023-07-09T06:23:18;3.20;;;2.90;;
14021;SDS011;7086;48.116;11.580;2023-07-09T06:25:45;4.35;;;2.72;;
14021;SDS011;7086;48.116;11.580;2023-07-09T06:28:14;3.38;;;2.25;;
14021;SDS011;7086;48.116;11.580;2023-07-09T06:30:41;4.80;;;2.60;;
14021;SDS011;7086;48.116;11.580;2023-07-09T06:33:10;2.38;;;2.13;;
14021;SDS011;7086;48.116;11.580;2023-07-09T06:35:37;2.58;;;2.38;;
14021;SDS011;7086;48.116;11.580;2023-07-09T06:38:04;3.33;;;3.00;;
14021;SDS011;7086;48.116;11.580;2023-07-09T06:40:31;3.38;;;2.60;;
14021;SDS011;7086;48.116;11.580;2023-07-09T06:42:58;2.60;;;2.40;;
14021;SDS011;7086;48.116;11.580;2023-07-09T06:45:24;2.75;;;2.42;;
14021;SDS011;7086;48.116;11.580;2023-07-09T06:47:51;2.67;;;2.47;;
14021;SDS011;7086;48.116;11.580;2023-07-09T06:50:19;3.05;;;2.28;;
14021;SDS011;7086;48.116;11.580;2023-07-09T06:52:46;2.85;;;2.65;;
14021;SDS011;7086;48.116;11.580;2023-07-09T06:55:13;2.95;;;1.90;;
14021;SDS011;7086;48.116;11.580;2023-07-09T06:57:39;2.83;;;2.30;;
14021;SDS011;7086;48.116;11.580;2023-07-09T07:00:07;2.92;;;2.65;;
14021;SDS011;7086;48.116;11.580;2023-07-09T07:02:34;2.83;;;2.25;;
14021;SDS011;7086;48.116;11.580;2023-07-09T07:05:01;2.85;;;2.35;;
14021;SDS011;7086;48.116;11.580;2023-07-09T07:07:29;2.70;;;2.50;;
14021;SDS011;7086;48.116;11.580;2023-07-09T07:09:55;1.83;;;1.73;;
14021;SDS011;7086;48.116;11.580;2023-07-09T07:12:26;2.95;;;2.70;;
14021;SDS011;7086;48.116;11.580;2023-07-09T07:14:54;2.70;;;2.50;;
14021;SDS011;7086;48.116;11.580;2023-07-09T07:17:21;2.63;;;2.35;;
14021;SDS011;7086;48.116;11.580;2023-07-09T07:19:49;2.58;;;2.08;;
14021;SDS011;7086;48.116;11.580;2023-07-09T07:22:16;2.47;;;2.28;;
14021;SDS011;7086;48.116;11.580;2023-07-09T07:24:44;3.55;;;2.30;;
14021;SDS011;7086;48.116;11.580;2023-07-09T07:27:11;2.42;;;2.03;;
14021;SDS011;7086;48.116;11.580;2023-07-09T07:29:38;1.95;;;1.85;;
14021;SDS011;7086;48.116;11.580;2023-07-09T07:32:05;2.90;;;2.63;;
14021;SDS011;7086;48.116;11.580;2023-07-09T07:34:32;2.42;;;2.30;;
14021;SDS011;7086;48.116;11.580;2023-07-09T07:36:59;2.17;;;1.98;;
14021;SDS011;7086;48.116;11.580;2023-07-09T07:39:26;2.50;;;2.40;;
14021;SDS011;7086;48.116;11.580;2023-07-09T07:41:54;2.45;;;2.25;;
14021;SDS011;7086;48.116;11.580;2023-07-09T07:44:21;2.75;;;2.40;;
14021;SDS011;7086;48.116;11.580;2023-07-09T07:46:48;2.35;;;2.22;;
14021;SDS011;7086;48.116;11.580;2023-07-09T07:49:15;2.33;;;2.10;;
14021;SDS011;7086;48.116;11.580;2023-07-09T07:51:42;3.70;;;2.70;;
14021;SDS011;7086;48.116;11.580;2023-07-09T07:54:09;2.63;;;2.53;;
14021;SDS011;7086;48.116;11.580;2023-07-09T07:56:36;3.28;;;2.35;;
14021;SDS011;7086;48.116;11.580;2023-07-09T07:59:04;2.22;;;2.00;;
14021;SDS011;7086;48.116;11.580;2023-07-09T08:01:30;2.67;;;2.47;;
14021;SDS011;7086;48.116;11.580;2023-07-09T08:04:00;3.25;;;3.00;;
14021;SDS011;7086;48.116;11.580;2023-07-09T08:06:27;3.83;;;3.10;;
14021;SDS011;7086;48.116;11.580;2023-07-09T08:08:54;3.20;;;2.70;;
14021;SDS011;7086;48.116;11.580;2023-07-09T08:11:20;2.67;;;2.58;;
14021;SDS011;7086;48.116;11.580;2023-07-09T08:13:47;2.75;;;2.42;;
14021;SDS011;7086;48.116;11.580;2023-07-09T08:16:16;2.70;;;2.50;;
14021;SDS011;7086;48.116;11.580;2023-07-09T08:18:43;2.72;;;2.60;;
14021;SDS011;7086;48.116;11.580;2023-07-09T08:21:09;2.72;;;2.53;;
14021;SDS011;7086;48.116;11.580;2023-07-09T08:23:36;2.22;;;2.13;;
14021;SDS011;7086;48.116;11.580;2023-07-09T08:26:04;2.60;;;2.50;;
14021;SDS011;7086;48.116;11.580;2023-07-09T08:28:30;3.70;;;2.90;;
14021;SDS011;7086;48.116;11.580;2023-07-09T08:30:57;5.63;;;2.72;;
14021;SDS011;7086;48.116;11.580;2023-07-09T08:33:26;2.83;;;2.58;;
14021;SDS011;7086;48.116;11.580;2023-07-09T08:35:53;2.95;;;2.40;;
14021;SDS011;7086;48.116;11.580;2023-07-09T08:38:20;2.95;;;2.75;;
14021;SDS011;7086;48.116;11.580;2023-07-09T08:40:49;2.85;;;2.65;;
14021;SDS011;7086;48.116;11.580;2023-07-09T08:43:25;2.90;;;2.70;;
14021;SDS011;7086;48.116;11.580;2023-07-09T08:46:01;2.45;;;2.30;;
14021;SDS011;7086;48.116;11.580;2023-07-09T08:48:33;3.08;;;2.88;;
14021;SDS011;7086;48.116;11.580;2023-07-09T08:51:03;3.22;;;2.72;;
14021;SDS011;7086;48.116;11.580;2023-07-09T08:53:36;2.92;;;2.72;;
14021;SDS011;7086;48.116;11.580;2023-07-09T08:56:08;3.38;;;2.55;;
14021;SDS011;7086;48.116;11.580;2023-07-09T08:58:36;3.28;;;2.70;;
14021;SDS011;7086;48.116;11.580;2023-07-09T09:01:05;4.53;;;2.67;;
14021;SDS011;7086;48.116;11.580;2023-07-09T09:03:40;2.92;;;2.25;;
14021;SDS011;7086;48.116;11.580;2023-07-09T09:06:13;2.88;;;2.60;;
14021;SDS011;7086;48.116;11.580;2023-07-09T09:08:44;2.58;;;2.30;;
14021;SDS011;7086;48.116;11.580;2023-07-09T09:11:19;3.13;;;2.13;;
14021;SDS011;7086;48.116;11.580;2023-07-09T09:13:51;2.30;;;2.13;;
14021;SDS011;7086;48.116;11.580;2023-07-09T09:16:22;2.10;;;2.00;;
14021;SDS011;7086;48.116;11.580;2023-07-09T09:18:55;2.60;;;2.40;;
14021;SDS011;7086;48.116;11.580;2023-07-09T09:21:25;3.45;;;2.08;;
14021;SDS011;7086;48.116;11.580;2023-07-09T09:23:57;2.83;;;1.80;;
14021;SDS011;7086;48.116;11.580;2023-07-09T09:26:28;2.33;;;2.20;;
14021;SDS011;7086;48.116;11.580;2023-07-09T09:28:58;2.80;;;2.58;;
14021;SDS011;7086;48.116;11.580;2023-07-09T09:31:26;3.60;;;3.30;;
14021;SDS011;7086;48.116;11.580;2023-07-09T09:33:56;2.60;;;2.40;;
14021;SDS011;7086;48.116;11.580;2023-07-09T09:36:25;2.42;;;2.33;;
14021;SDS011;7086;48.116;11.580;2023-07-09T09:38:53;3.25;;;2.38;;
14021;SDS011;7086;48.116;11.580;2023-07-09T09:41:21;2.28;;;2.17;;
14021;SDS011;7086;48.116;11.580;2023-07-09T09:43:51;2.65;;;2.20;;
14021;SDS011;7086;48.116;11.580;2023-07-09T09:46:19;2.70;;;2.42;;
14021;SDS011;7086;48.116;11.580;2023-07-09T09:48:48;2.13;;;2.03;;
14021;SDS011;7086;48.116;11.580;2023-07-09T09:51:17;2.45;;;2.25;;
14021;SDS011;7086;48.116;11.580;2023-07-09T09:53:46;2.75;;;2.53;;
14021;SDS011;7086;48.116;11.580;2023-07-09T09:56:17;2.17;;;2.08;;
14021;SDS011;7086;48.116;11.580;2023-07-09T09:58:45;2.20;;;2.10;;
14021;SDS011;7086;48.116;11.580;2023-07-09T10:01:13;5.20;;;2.05;;
14021;SDS011;7086;48.116;11.580;2023-07-09T10:03:43;2.53;;;2.38;;
14021;SDS011;7086;48.116;11.580;2023-07-09T10:06:14;2.63;;;2.45;;
14021;SDS011;7086;48.116;11.580;2023-07-09T10:08:50;2.95;;;2.45;;
14021;SDS011;7086;48.116;11.580;2023-07-09T10:11:26;4.10;;;2.22;;
14021;SDS011;7086;48.116;11.580;2023-07-09T10:14:00;2.65;;;2.50;;
14021;SDS011;7086;48.116;11.580;2023-07-09T10:16:36;2.30;;;2.10;;
14021;SDS011;7086;48.116;11.580;2023-07-09T10:19:12;2.45;;;2.00;;
14021;SDS011;7086;48.116;11.580;2023-07-09T10:21:53;3.05;;;2.10;;
14021;SDS011;7086;48.116;11.580;2023-07-09T10:24:29;5.13;;;2.50;;
14021;SDS011;7086;48.116;11.580;2023-07-09T10:27:12;1.85;;;1.63;;
14021;SDS011;7086;48.116;11.580;2023-07-09T10:29:50;4.10;;;1.90;;
14021;SDS011;7086;48.116;11.580;2023-07-09T10:32:33;2.70;;;2.25;;
14021;SDS011;7086;48.116;11.580;2023-07-09T10:35:09;2.50;;;2.30;;
14021;SDS011;7086;48.116;11.580;2023-07-09T10:37:55;3.78;;;2.05;;
14021;SDS011;7086;48.116;11.580;2023-07-09T10:40:36;3.92;;;2.47;;
14021;SDS011;7086;48.116;11.580;2023-07-09T10:43:06;2.25;;;2.03;;
14021;SDS011;7086;48.116;11.580;2023-07-09T10:45:39;3.28;;;3.08;;
14021;SDS011;7086;48.116;11.580;2023-07-09T10:48:15;4.65;;;2.60;;
14021;SDS011;7086;48.116;11.580;2023-07-09T10:50:45;2.97;;;2.78;;
14021;SDS011;7086;48.116;11.580;2023-07-09T10:53:18;2.70;;;2.50;;
14021;SDS011;7086;48.116;11.580;2023-07-09T10:55:56;3.15;;;2.47;;
14021;SDS011;7086;48.116;11.580;2023-07-09T10:58:33;5.93;;;2.35;;
14021;SDS011;7086;48.116;11.580;2023-07-09T11:01:04;3.08;;;2.78;;
14021;SDS011;7086;48.116;11.580;2023-07-09T11:03:37;3.67;;;3.38;;
14021;SDS011;7086;48.116;11.580;2023-07-09T11:06:11;4.53;;;2.60;;
14021;SDS011;7086;48.116;11.580;2023-07-09T11:08:44;3.38;;;2.60;;
14021;SDS011;7086;48.116;11.580;2023-07-09T11:11:17;4.72;;;2.60;;
14021;SDS011;7086;48.116;11.580;2023-07-09T11:13:50;3.17;;;2.97;;
14021;SDS011;7086;48.116;11.580;2023-07-09T11:16:20;3.42;;;3.13;;
14021;SDS011;7086;48.116;11.580;2023-07-09T11:18:55;3.08;;;2.85;;
14021;SDS011;7086;48.116;11.580;2023-07-09T11:21:24;5.00;;;4.63;;
14021;SDS011;7086;48.116;11.580;2023-07-09T11:23:52;3.65;;;3.42;;
14021;SDS011;7086;48.116;11.580;2023-07-09T11:26:26;4.93;;;4.53;;
14021;SDS011;7086;48.116;11.580;2023-07-09T11:29:06;2.88;;;2.67;;
14021;SDS011;7086;48.116;11.580;2023-07-09T11:31:44;3.50;;;3.20;;
14021;SDS011;7086;48.116;11.580;2023-07-09T11:34:18;2.97;;;2.78;;
14021;SDS011;7086;48.116;11.580;2023-07-09T11:36:47;2.35;;;2.25;;
14021;SDS011;7086;48.116;11.580;2023-07-09T11:39:17;2.22;;;2.08;;
14021;SDS011;7086;48.116;11.580;2023-07-09T11:41:49;5.53;;;5.07;;
14021;SDS011;7086;48.116;11.580;2023-07-09T11:44:17;6.78;;;6.18;;
14021;SDS011;7086;48.116;11.580;2023-07-09T11:46:49;4.57;;;4.25;;
14021;SDS011;7086;48.116;11.580;2023-07-09T11:49:51;3.72;;;3.42;;
14021;SDS011;7086;48.116;11.580;2023-07-09T11:52:24;3.28;;;2.42;;
14021;SDS011;7086;48.116;11.580;2023-07-09T11:54:57;2.78;;;2.58;;
14021;SDS011;7086;48.116;11.580;2023-07-09T11:57:29;3.53;;;2.78;;
14021;SDS011;7086;48.116;11.580;2023-07-09T11:59:58;2.67;;;2.47;;
14021;SDS011;7086;48.116;11.580;2023-07-09T12:02:29;2.90;;;2.70;;
14021;SDS011;7086;48.116;11.580;2023-07-09T12:05:01;4.60;;;2.38;;
14021;SDS011;7086;48.116;11.580;2023-07-09T12:07:42;4.75;;;2.47;;
14021;SDS011;7086;48.116;11.580;2023-07-09T12:10:17;3.60;;;2.78;;
14021;SDS011;7086;48.116;11.580;2023-07-09T12:12:53;6.50;;;2.45;;
14021;SDS011;7086;48.116;11.580;2023-07-09T12:15:21;2.45;;;2.35;;
14021;SDS011;7086;48.116;11.580;2023-07-09T12:17:54;2.95;;;2.65;;
14021;SDS011;7086;48.116;11.580;2023-07-09T12:20:22;2.65;;;2.45;;
14021;SDS011;7086;48.116;11.580;2023-07-09T12:22:50;2.47;;;2.25;;
14021;SDS011;7086;48.116;11.580;2023-07-09T12:25:22;3.45;;;2.70;;
14021;SDS011;7086;48.116;11.580;2023-07-09T12:27:53;4.40;;;3.10;;
14021;SDS011;7086;48.116;11.580;2023-07-09T12:30:20;2.92;;;2.65;;
14021;SDS011;7086;48.116;11.580;2023-07-09T12:32:49;2.28;;;2.10;;
14021;SDS011;7086;48.116;11.580;2023-07-09T12:35:19;2.58;;;2.38;;
14021;SDS011;7086;48.116;11.580;2023-07-09T12:37:47;2.35;;;2.25;;
14021;SDS011;7086;48.116;11.580;2023-07-09T12:40:19;2.70;;;2.50;;
14021;SDS011;7086;48.116;11.580;2023-07-09T12:42:48;3.45;;;3.05;;
14021;SDS011;7086;48.116;11.580;2023-07-09T12:45:18;2.70;;;2.50;;
14021;SDS011;7086;48.116;11.580;2023-07-09T12:47:47;2.63;;;2.42;;
14021;SDS011;7086;48.116;11.580;2023-07-09T12:50:19;2.50;;;2.30;;
14021;SDS011;7086;48.116;11.580;2023-07-09T12:52:54;2.47;;;2.13;;
14021;SDS011;7086;48.116;11.580;2023-07-09T12:55:22;2.33;;;2.03;;
14021;SDS011;7086;48.116;11.580;2023-07-09T12:57:50;3.22;;;2.50;;
14021;SDS011;7086;48.116;11.580;2023-07-09T13:00:19;5.28;;;2.05;;
14021;SDS011;7086;48.116;11.580;2023-07-09T13:02:50;2.25;;;2.05;;
14021;SDS011;7086;48.116;11.580;2023-07-09T13:05:29;2.45;;;2.25;;
14021;SDS011;7086;48.116;11.580;2023-07-09T13:07:58;3.40;;;3.17;;
14021;SDS011;7086;48.116;11.580;2023-07-09T13:10:27;2.97;;;2.70;;
14021;SDS011;7086;48.116;11.580;2023-07-09T13:12:57;5.65;;;4.25;;
14021;SDS011;7086;48.116;11.580;2023-07-09T13:15:29;3.20;;;3.00;;
14021;SDS011;7086;48.116;11.580;2023-07-09T13:17:58;3.50;;;2.80;;
14021;SDS011;7086;48.116;11.580;2023-07-09T13:20:27;2.70;;;2.53;;
14021;SDS011;7086;48.116;11.580;2023-07-09T13:22:55;2.95;;;2.42;;
14021;SDS011;7086;48.116;11.580;2023-07-09T13:25:23;3.28;;;3.08;;
14021;SDS011;7086;48.116;11.580;2023-07-09T13:27:50;3.67;;;2.30;;
14021;SDS011;7086;48.116;11.580;2023-07-09T13:30:17;3.50;;;2.83;;
14021;SDS011;7086;48.116;11.580;2023-07-09T13:32:46;3.40;;;2.97;;
14021;SDS011;7086;48.116;11.580;2023-07-09T13:35:15;4.53;;;3.95;;
14021;SDS011;7086;48.116;11.580;2023-07-09T13:37:43;3.65;;;3.33;;
14021;SDS011;7086;48.116;11.580;2023-07-09T13:40:11;3.35;;;3.05;;
14021;SDS011;7086;48.116;11.580;2023-07-09T13:42:40;2.47;;;2.28;;
14021;SDS011;7086;48.116;11.580;2023-07-09T13:45:18;2.60;;;2.38;;
14021;SDS011;7086;48.116;11.580;2023-07-09T13:47:47;2.63;;;2.50;;
14021;SDS011;7086;48.116;11.580;2023-07-09T13:50:29;2.22;;;2.13;;
14021;SDS011;7086;48.116;11.580;2023-07-09T13:52:56;2.40;;;2.20;;
14021;SDS011;7086;48.116;11.580;2023-07-09T13:55:25;2.42;;;2.22;;
14021;SDS011;7086;48.116;11.580;2023-07-09T13:57:52;2.60;;;2.50;;
14021;SDS011;7086;48.116;11.580;2023-07-09T14:00:19;3.38;;;2.63;;
14021;SDS011;7086;48.116;11.580;2023-07-09T14:02:49;2.63;;;2.42;;
14021;SDS011;7086;48.116;11.580;2023-07-09T14:05:18;2.60;;;2.25;;
14021;SDS011;7086;48.116;11.580;2023-07-09T14:07:46;2.63;;;2.30;;
14021;SDS011;7086;48.116;11.580;2023-07-09T14:10:14;3.70;;;2.25;;
14021;SDS011;7086;48.116;11.580;2023-07-09T14:12:43;2.22;;;2.13;;
14021;SDS011;7086;48.116;11.580;2023-07-09T14:15:14;3.08;;;2.72;;
14021;SDS011;7086;48.116;11.580;2023-07-09T14:17:43;3.42;;;3.10;;
14021;SDS011;7086;48.116;11.580;2023-07-09T14:20:13;4.82;;;2.90;;
14021;SDS011;7086;48.116;11.580;2023-07-09T14:22:41;3.90;;;3.17;;
14021;SDS011;7086;48.116;11.580;2023-07-09T14:25:14;2.80;;;2.60;;
14021;SDS011;7086;48.116;11.580;2023-07-09T14:27:44;2.72;;;2.53;;
14021;SDS011;7086;48.116;11.580;2023-07-09T14:30:13;2.42;;;2.22;;
14021;SDS011;7086;48.116;11.580;2023-07-09T14:32:41;4.93;;;2.50;;
14021;SDS011;7086;48.116;11.580;2023-07-09T14:35:11;2.65;;;1.92;;
14021;SDS011;7086;48.116;11.580;2023-07-09T14:37:41;3.15;;;2.85;;
14021;SDS011;7086;48.116;11.580;2023-07-09T14:40:09;2.60;;;2.40;;
14021;SDS011;7086;48.116;11.580;2023-07-09T14:42:37;3.40;;;3.10;;
14021;SDS011;7086;48.116;11.580;2023-07-09T14:45:25;2.70;;;2.50;;
14021;SDS011;7086;48.116;11.580;2023-07-09T14:48:14;2.95;;;2.50;;
14021;SDS011;7086;48.116;11.580;2023-07-09T14:51:07;2.60;;;2.40;;
14021;SDS011;7086;48.116;11.580;2023-07-09T14:54:01;3.60;;;2.47;;
14021;SDS011;7086;48.116;11.580;2023-07-09T14:56:48;2.72;;;2.50;;
14021;SDS011;7086;48.116;11.580;2023-07-09T14:59:35;3.80;;;2.40;;
14021;SDS011;7086;48.116;11.580;2023-07-09T15:02:08;2.95;;;2.35;;